createdAt,value
2022-10-29T00:01:09.187Z,20.85
2022-10-29T00:04:27.195Z,19.20
2022-10-29T00:06:54.276Z,17.10
2022-10-29T00:09:21.298Z,20.73
2022-10-29T00:16:20.009Z,17.63
2022-10-29T00:18:47.499Z,18.60
2022-10-29T00:22:01.095Z,19.80
2022-10-29T00:24:28.152Z,19.17
2022-10-29T00:37:09.286Z,19.10
2022-10-29T00:39:36.412Z,21.15
2022-10-29T00:45:32.542Z,19.38
2022-10-29T00:47:59.694Z,18.02
2022-10-29T00:50:26.796Z,17.83
2022-10-29T00:53:33.386Z,17.08
2022-10-29T00:56:01.137Z,20.25
2022-10-29T01:01:37.004Z,15.80
2022-10-29T01:04:41.963Z,16.38
2022-10-29T01:07:09.139Z,16.13
2022-10-29T01:09:36.415Z,18.10
2022-10-29T01:16:18.978Z,17.30
2022-10-29T01:18:54.603Z,18.88
2022-10-29T01:21:33.589Z,17.63
2022-10-29T01:24:34.426Z,16.10
2022-10-29T01:27:43.963Z,19.25
2022-10-29T01:30:18.589Z,17.15
2022-10-29T01:32:51.848Z,15.55
2022-10-29T01:35:46.788Z,18.45
2022-10-29T01:53:28.337Z,20.63
2022-10-29T01:55:55.441Z,17.45
2022-10-29T01:58:24.103Z,16.33
2022-10-29T02:01:14.597Z,13.45
2022-10-29T02:03:56.086Z,14.70
2022-10-29T02:06:57.197Z,17.15
2022-10-29T02:09:40.100Z,14.77
2022-10-29T02:12:29.251Z,16.38
2022-10-29T02:15:06.463Z,19.77
2022-10-29T02:21:32.027Z,17.42
2022-10-29T02:23:59.197Z,18.20
2022-10-29T02:26:32.858Z,15.82
2022-10-29T02:29:00.545Z,15.90
2022-10-29T02:31:27.716Z,18.25
2022-10-29T02:38:21.583Z,15.95
2022-10-29T02:40:48.677Z,16.92
2022-10-29T02:45:46.808Z,16.73
2022-10-29T02:48:13.908Z,17.83
2022-10-29T02:50:40.945Z,16.90
2022-10-29T02:53:08.046Z,13.93
2022-10-29T02:56:37.308Z,15.45
2022-10-29T02:59:06.501Z,14.82
2022-10-29T03:04:44.301Z,13.95
2022-10-29T03:07:50.679Z,17.55
2022-10-29T03:10:17.874Z,15.02
2022-10-29T03:12:44.895Z,13.70
2022-10-29T03:15:15.857Z,14.52
2022-10-29T03:17:42.988Z,10.63
2022-10-29T03:20:10.373Z,12.60
2022-10-29T03:22:40.775Z,12.98
2022-10-29T03:25:08.237Z,11.98
2022-10-29T03:27:49.393Z,12.75
2022-10-29T03:30:17.584Z,10.35
2022-10-29T03:32:47.435Z,9.55
2022-10-29T03:36:08.444Z,11.30
2022-10-29T03:38:35.565Z,10.35
2022-10-29T03:44:24.264Z,7.85
2022-10-29T03:46:51.427Z,11.02
2022-10-29T03:53:20.764Z,13.20
2022-10-29T03:55:51.061Z,12.98
2022-10-29T03:58:18.207Z,12.93
2022-10-29T04:00:45.338Z,8.00
2022-10-29T04:03:12.398Z,10.18
2022-10-29T04:05:39.515Z,10.80
2022-10-29T04:08:06.650Z,12.15
2022-10-29T04:10:33.709Z,11.35
2022-10-29T04:13:10.836Z,13.80
2022-10-29T04:15:37.892Z,9.40
2022-10-29T04:18:05.085Z,11.30
2022-10-29T04:31:54.258Z,11.05
2022-10-29T04:34:21.343Z,9.57
2022-10-29T04:36:48.397Z,13.43
2022-10-29T04:39:18.319Z,8.68
2022-10-29T04:41:49.758Z,12.25
2022-10-29T04:44:21.952Z,12.40
2022-10-29T04:46:49.134Z,10.65
2022-10-29T04:49:16.363Z,10.70
2022-10-29T04:51:45.754Z,11.10
2022-10-29T04:54:12.839Z,14.15
2022-10-29T04:56:39.894Z,12.48
2022-10-29T04:59:32.375Z,12.52
2022-10-29T05:01:59.402Z,10.13
2022-10-29T05:04:28.246Z,15.70
2022-10-29T05:07:05.781Z,10.55
2022-10-29T05:09:32.834Z,14.18
2022-10-29T05:11:59.924Z,11.50
2022-10-29T05:18:26.213Z,18.50
2022-10-29T05:20:54.960Z,13.18
2022-10-29T05:23:22.399Z,12.07
2022-10-29T05:25:51.381Z,12.20
2022-10-29T05:28:21.584Z,11.85
2022-10-29T05:30:51.102Z,10.05
2022-10-29T05:33:39.620Z,18.15
2022-10-29T05:36:06.794Z,14.13
2022-10-29T05:38:33.882Z,9.57
2022-10-29T05:42:00.184Z,18.33
2022-10-29T05:44:27.292Z,16.77
2022-10-29T05:46:57.594Z,8.73
2022-10-29T05:50:29.949Z,11.05
2022-10-29T05:53:03.083Z,14.35
2022-10-29T05:56:21.074Z,11.82
2022-10-29T05:58:52.094Z,17.27
2022-10-29T06:01:25.225Z,10.32
2022-10-29T06:06:20.430Z,13.63
2022-10-29T06:09:12.488Z,9.35
2022-10-29T06:11:39.548Z,9.68
2022-10-29T06:14:06.671Z,9.70
2022-10-29T06:16:33.669Z,13.27
2022-10-29T06:19:00.691Z,12.27
2022-10-29T06:21:27.740Z,13.00
2022-10-29T06:23:55.891Z,11.70
2022-10-29T06:26:23.026Z,14.88
2022-10-29T06:28:50.017Z,15.77
2022-10-29T06:31:17.052Z,10.05
2022-10-29T06:33:44.151Z,15.90
2022-10-29T06:36:11.169Z,13.15
2022-10-29T06:38:38.206Z,8.73
2022-10-29T06:41:05.515Z,14.43
2022-10-29T06:43:32.511Z,15.48
2022-10-29T06:45:59.604Z,13.73
2022-10-29T06:48:26.596Z,13.85
2022-10-29T06:50:53.733Z,12.02
2022-10-29T06:53:23.816Z,14.00
2022-10-29T06:55:50.859Z,13.55
2022-10-29T06:58:20.381Z,17.85
2022-10-29T07:00:48.693Z,12.55
2022-10-29T07:03:17.850Z,13.38
2022-10-29T07:05:45.290Z,11.85
2022-10-29T07:08:12.651Z,9.23
2022-10-29T07:10:41.025Z,15.05
2022-10-29T07:13:10.030Z,15.60
2022-10-29T07:15:37.036Z,11.82
2022-10-29T07:18:06.704Z,17.02
2022-10-29T07:20:37.039Z,13.63
2022-10-29T07:23:04.294Z,15.68
2022-10-29T07:25:32.337Z,17.83
2022-10-29T07:28:08.431Z,19.85
2022-10-29T07:30:35.518Z,17.52
2022-10-29T07:33:03.900Z,17.95
2022-10-29T07:35:31.008Z,14.77
2022-10-29T07:38:09.162Z,10.77
2022-10-29T07:40:48.308Z,16.63
2022-10-29T07:43:19.017Z,16.17
2022-10-29T07:45:50.185Z,19.08
2022-10-29T07:48:21.401Z,18.05
2022-10-29T07:50:49.255Z,17.02
2022-10-29T07:55:59.638Z,13.43
2022-10-29T07:58:26.916Z,21.85
2022-10-29T08:00:54.539Z,21.40
2022-10-29T08:03:21.845Z,19.05
2022-10-29T08:05:56.413Z,18.98
2022-10-29T08:08:25.744Z,17.15
2022-10-29T08:10:52.763Z,14.55
2022-10-29T08:13:20.457Z,17.67
2022-10-29T08:15:49.670Z,18.52
2022-10-29T08:18:18.099Z,14.68
2022-10-29T08:20:45.869Z,17.02
2022-10-29T08:23:15.906Z,20.20
2022-10-29T08:25:43.725Z,21.00
2022-10-29T08:28:13.720Z,13.88
2022-10-29T08:30:50.332Z,17.27
2022-10-29T08:33:18.447Z,17.90
2022-10-29T08:35:45.444Z,13.88
2022-10-29T08:38:13.643Z,14.15
2022-10-29T08:41:05.229Z,17.65
2022-10-29T08:43:59.052Z,23.35
2022-10-29T08:46:47.118Z,17.97
2022-10-29T08:49:22.139Z,16.25
2022-10-29T08:52:01.190Z,15.57
2022-10-29T08:54:33.692Z,16.13
2022-10-29T08:57:08.067Z,12.95
2022-10-29T09:00:06.127Z,19.75
2022-10-29T09:02:33.447Z,12.13
2022-10-29T09:05:45.494Z,13.70
2022-10-29T09:08:30.723Z,16.35
2022-10-29T09:11:05.103Z,15.80
2022-10-29T09:13:41.083Z,18.98
2022-10-29T09:21:11.798Z,15.02
2022-10-29T09:23:47.905Z,15.50
2022-10-29T09:27:12.651Z,18.38
2022-10-29T09:29:46.051Z,12.83
2022-10-29T09:33:14.039Z,14.63
2022-10-29T09:35:52.663Z,20.02
2022-10-29T09:38:40.475Z,12.25
2022-10-29T09:41:10.548Z,13.32
2022-10-29T09:44:23.975Z,17.85
2022-10-29T09:47:29.089Z,18.95
2022-10-29T09:52:50.023Z,17.58
2022-10-29T09:55:27.636Z,14.57
2022-10-29T09:57:57.378Z,11.15
2022-10-29T10:00:27.866Z,15.60
2022-10-29T10:03:03.340Z,18.17
2022-10-29T10:05:35.566Z,13.05
2022-10-29T10:08:07.457Z,14.63
2022-10-29T10:10:38.192Z,14.30
2022-10-29T10:13:06.622Z,11.73
2022-10-29T10:15:37.747Z,12.10
2022-10-29T10:18:47.720Z,24.95
2022-10-29T10:21:28.437Z,13.63
2022-10-29T10:23:57.770Z,12.45
2022-10-29T10:26:45.354Z,22.92
2022-10-29T10:29:21.799Z,16.80
2022-10-29T10:32:10.206Z,13.63
2022-10-29T10:34:39.100Z,8.85
2022-10-29T10:37:16.147Z,14.23
2022-10-29T10:40:19.988Z,10.80
2022-10-29T10:42:47.623Z,13.98
2022-10-29T10:45:18.197Z,9.95
2022-10-29T10:47:51.315Z,12.93
2022-10-29T10:50:26.493Z,10.00
2022-10-29T10:52:55.575Z,15.45
2022-10-29T10:55:24.271Z,12.10
2022-10-29T10:58:16.576Z,11.60
2022-10-29T11:00:58.075Z,8.70
2022-10-29T11:04:05.670Z,10.07
2022-10-29T11:06:39.029Z,11.60
2022-10-29T11:09:29.733Z,9.88
2022-10-29T11:12:13.772Z,10.70
2022-10-29T11:14:53.724Z,15.38
2022-10-29T11:17:37.137Z,11.38
2022-10-29T11:20:15.554Z,11.77
2022-10-29T11:22:58.309Z,9.35
2022-10-29T11:25:43.496Z,12.25
2022-10-29T11:28:19.842Z,11.88
2022-10-29T11:30:58.304Z,10.00
2022-10-29T11:33:43.779Z,12.02
2022-10-29T11:36:18.839Z,12.93
2022-10-29T11:39:07.666Z,13.23
2022-10-29T11:41:48.449Z,12.75
2022-10-29T11:44:18.109Z,8.63
2022-10-29T11:47:45.119Z,9.43
2022-10-29T11:50:43.447Z,7.70
2022-10-29T11:53:34.763Z,13.38
2022-10-29T11:56:14.199Z,13.77
2022-10-29T11:59:19.684Z,12.52
2022-10-29T12:01:55.553Z,11.25
2022-10-29T12:04:38.372Z,13.10
2022-10-29T12:07:35.083Z,12.00
2022-10-29T12:10:09.380Z,14.55
2022-10-29T12:13:08.629Z,13.35
2022-10-29T12:15:51.305Z,21.00
2022-10-29T12:18:30.330Z,13.52
2022-10-29T12:21:26.681Z,16.52
2022-10-29T12:24:30.510Z,16.75
2022-10-29T12:27:18.169Z,13.02
2022-10-29T12:30:04.398Z,15.02
2022-10-29T12:32:46.557Z,11.77
2022-10-29T12:35:35.252Z,13.63
2022-10-29T12:38:17.476Z,14.68
2022-10-29T12:40:48.958Z,15.43
2022-10-29T12:43:31.910Z,14.18
2022-10-29T12:46:21.309Z,14.70
2022-10-29T12:48:58.204Z,16.25
2022-10-29T12:51:43.958Z,17.92
2022-10-29T12:54:30.322Z,13.80
2022-10-29T12:57:13.029Z,11.50
2022-10-29T13:00:32.945Z,17.45
2022-10-29T13:03:00.537Z,17.08
2022-10-29T13:05:42.026Z,18.70
2022-10-29T13:08:19.246Z,14.60
2022-10-29T13:11:36.919Z,18.00
2022-10-29T13:14:04.080Z,18.77
2022-10-29T13:16:32.545Z,19.58
2022-10-29T13:19:29.478Z,15.90
2022-10-29T13:22:06.762Z,13.73
2022-10-29T13:24:33.878Z,12.80
2022-10-29T13:27:12.843Z,15.45
2022-10-29T13:29:51.024Z,15.88
2022-10-29T13:32:34.134Z,16.63
2022-10-29T13:36:06.267Z,12.00
2022-10-29T13:39:04.635Z,18.70
2022-10-29T13:41:40.432Z,17.10
2022-10-29T13:46:56.451Z,13.93
2022-10-29T13:49:30.552Z,18.08
2022-10-29T13:55:08.057Z,14.15
2022-10-29T13:57:54.480Z,17.55
2022-10-29T14:00:22.194Z,14.88
2022-10-29T14:03:22.672Z,14.63
2022-10-29T14:05:56.331Z,15.27
2022-10-29T14:08:49.114Z,20.80
2022-10-29T14:11:33.536Z,16.13
2022-10-29T14:14:04.460Z,16.10
2022-10-29T14:16:33.385Z,10.77
2022-10-29T14:23:20.379Z,14.50
2022-10-29T14:25:55.368Z,11.98
2022-10-29T14:28:30.362Z,14.85
2022-10-29T14:31:07.493Z,19.13
2022-10-29T14:34:25.908Z,13.70
2022-10-29T14:37:01.403Z,21.35
2022-10-29T14:39:59.713Z,14.70
2022-10-29T14:42:43.357Z,15.05
2022-10-29T14:54:19.714Z,18.23
2022-10-29T14:56:50.342Z,14.98
2022-10-29T14:59:39.138Z,15.07
2022-10-29T15:02:36.467Z,17.50
2022-10-29T15:05:28.047Z,18.92
2022-10-29T15:08:11.285Z,18.45
2022-10-29T15:11:18.746Z,15.00
2022-10-29T15:13:46.440Z,16.42
2022-10-29T15:20:40.697Z,17.05
2022-10-29T15:23:35.932Z,16.83
2022-10-29T15:26:24.100Z,14.85
2022-10-29T15:28:54.877Z,17.73
2022-10-29T15:32:06.917Z,22.10
2022-10-29T15:34:36.607Z,18.95
2022-10-29T15:37:45.218Z,15.70
2022-10-29T15:40:14.871Z,22.00
2022-10-29T15:42:51.038Z,19.27
2022-10-29T15:45:25.730Z,19.55
2022-10-29T15:52:21.803Z,20.88
2022-10-29T15:54:49.155Z,21.63
2022-10-29T15:57:17.844Z,24.45
2022-10-29T15:59:44.881Z,22.95
2022-10-29T16:02:14.352Z,18.67
2022-10-29T16:05:35.839Z,23.13
2022-10-29T16:08:03.863Z,24.30
2022-10-29T16:10:31.541Z,19.92
2022-10-29T16:13:55.122Z,23.38
2022-10-29T16:16:24.513Z,22.95
2022-10-29T16:18:58.744Z,21.92
2022-10-29T16:21:26.615Z,22.55
2022-10-29T16:23:54.142Z,20.27
2022-10-29T16:26:48.963Z,24.60
2022-10-29T16:31:43.601Z,25.38
2022-10-29T16:34:30.905Z,22.35
2022-10-29T16:36:57.984Z,32.30
2022-10-29T16:39:25.019Z,45.65
2022-10-29T16:41:54.469Z,87.60
2022-10-29T16:44:21.516Z,60.92
2022-10-29T16:46:48.617Z,58.17
2022-10-29T16:49:15.665Z,54.17
2022-10-29T16:51:42.877Z,42.63
2022-10-29T16:54:09.890Z,43.85
2022-10-29T16:56:36.936Z,31.08
2022-10-29T16:59:04.046Z,34.55
2022-10-29T17:02:40.675Z,32.92
2022-10-29T17:05:07.979Z,33.40
2022-10-29T17:07:35.068Z,25.77
2022-10-29T17:10:52.670Z,31.38
2022-10-29T17:13:20.042Z,29.92
2022-10-29T17:15:47.054Z,30.35
2022-10-29T17:26:43.283Z,28.85
2022-10-29T17:33:47.276Z,31.40
2022-10-29T17:36:15.506Z,38.38
2022-10-29T17:38:42.506Z,28.83
2022-10-29T18:17:29.150Z,32.83
2022-10-29T18:19:56.248Z,32.03
2022-10-29T18:22:23.296Z,28.05
2022-10-29T18:46:16.624Z,30.35
2022-10-29T18:48:47.068Z,23.33
2022-10-29T18:56:19.623Z,19.85
2022-10-29T18:58:47.218Z,27.05
2022-10-29T19:01:17.027Z,22.50
2022-10-29T19:03:48.366Z,22.60
2022-10-29T19:09:38.351Z,23.60
2022-10-29T19:10:36.172Z,24.08
2022-10-29T19:12:05.841Z,19.88
2022-10-29T19:14:32.881Z,25.73
2022-10-29T19:17:51.320Z,24.38
2022-10-29T19:20:19.641Z,26.25
2022-10-29T19:22:46.752Z,22.52
2022-10-29T19:42:58.132Z,28.07
2022-10-29T19:45:25.165Z,27.73
2022-10-29T20:36:13.896Z,26.80
2022-10-29T20:38:41.085Z,28.13
2022-10-29T20:41:08.309Z,27.20
2022-10-29T20:47:43.426Z,23.52
2022-10-29T20:50:10.603Z,22.20
2022-10-29T20:52:37.654Z,21.02
2022-10-29T20:55:05.270Z,19.38
2022-10-29T20:57:32.323Z,25.23
2022-10-29T21:27:10.073Z,32.42
2022-10-29T21:29:37.204Z,36.20
2022-10-29T21:32:04.435Z,28.40
2022-10-29T21:47:51.204Z,33.70
2022-10-29T21:50:18.396Z,37.58
2022-10-29T22:07:03.559Z,61.37
2022-10-29T22:09:30.741Z,77.07
2022-10-29T22:11:57.784Z,84.30
2022-10-29T22:33:09.600Z,70.60
2022-10-29T22:35:36.676Z,67.13
2022-10-29T22:38:03.699Z,66.40
2022-10-29T22:45:24.794Z,72.10
2022-10-29T22:47:51.920Z,72.40
2022-10-29T22:50:19.032Z,69.40
2022-10-29T22:53:21.736Z,69.72
2022-10-29T22:55:53.012Z,67.38
2022-10-29T22:58:20.143Z,70.22
2022-10-29T23:01:13.117Z,61.22
2022-10-29T23:22:10.345Z,60.75
2022-10-29T23:24:37.461Z,61.83
2022-10-29T23:27:04.590Z,62.97
2022-10-29T23:46:57.178Z,72.18
2022-10-29T23:49:24.231Z,65.22
2022-10-29T23:56:13.005Z,62.60
2022-10-29T23:58:40.097Z,68.43
